createdAt,value
2022-10-13T00:00:14.563Z,58.83
2022-10-13T00:02:41.479Z,57.80
2022-10-13T00:05:08.869Z,57.88
2022-10-13T00:07:35.812Z,59.08
2022-10-13T00:10:02.698Z,59.53
2022-10-13T00:12:29.637Z,54.58
2022-10-13T00:14:58.212Z,57.80
2022-10-13T00:17:25.149Z,64.05
2022-10-13T00:19:52.072Z,55.33
2022-10-13T00:22:19.284Z,55.38
2022-10-13T00:24:51.419Z,59.13
2022-10-13T00:27:18.357Z,53.50
2022-10-13T00:29:45.368Z,55.22
2022-10-13T00:32:12.419Z,56.53
2022-10-13T00:34:39.501Z,57.38
2022-10-13T00:37:06.860Z,55.67
2022-10-13T00:39:33.948Z,59.47
2022-10-13T00:42:01.102Z,51.85
2022-10-13T00:44:55.946Z,59.95
2022-10-13T00:47:23.827Z,58.20
2022-10-13T00:49:52.655Z,56.72
2022-10-13T00:52:21.334Z,54.90
2022-10-13T00:54:49.614Z,56.20
2022-10-13T00:57:18.110Z,54.40
2022-10-13T00:59:45.068Z,54.60
2022-10-13T01:02:12.053Z,54.75
2022-10-13T01:04:43.525Z,49.78
2022-10-13T01:07:11.054Z,54.70
2022-10-13T01:09:38.026Z,53.58
2022-10-13T01:12:14.143Z,53.75
2022-10-13T01:15:00.644Z,52.00
2022-10-13T01:18:02.560Z,53.75
2022-10-13T01:20:50.665Z,53.58
2022-10-13T01:23:17.539Z,52.80
2022-10-13T01:25:53.246Z,55.05
2022-10-13T01:28:20.180Z,56.65
2022-10-13T01:30:54.310Z,51.65
2022-10-13T01:33:55.233Z,52.17
2022-10-13T01:36:22.091Z,49.38
2022-10-13T01:38:57.037Z,53.85
2022-10-13T01:41:23.896Z,52.22
2022-10-13T01:44:13.052Z,55.75
2022-10-13T01:46:40.819Z,53.15
2022-10-13T01:49:11.890Z,56.45
2022-10-13T01:51:40.008Z,53.03
2022-10-13T01:54:07.293Z,53.40
2022-10-13T01:56:34.277Z,57.70
2022-10-13T01:59:07.790Z,53.97
2022-10-13T02:01:37.825Z,55.00
2022-10-13T02:04:14.551Z,54.95
2022-10-13T02:06:44.147Z,52.35
2022-10-13T02:09:32.870Z,49.53
2022-10-13T02:12:07.306Z,50.15
2022-10-13T02:14:36.883Z,54.13
2022-10-13T02:17:05.654Z,52.22
2022-10-13T02:19:38.966Z,54.17
2022-10-13T02:22:08.333Z,50.17
2022-10-13T02:24:35.922Z,53.83
2022-10-13T02:27:05.501Z,50.05
2022-10-13T02:29:32.871Z,60.58
2022-10-13T02:31:59.789Z,52.20
2022-10-13T02:34:27.936Z,49.72
2022-10-13T02:36:54.942Z,52.78
2022-10-13T02:39:21.854Z,52.80
2022-10-13T02:41:48.811Z,48.63
2022-10-13T02:44:15.736Z,49.40
2022-10-13T02:46:42.735Z,53.45
2022-10-13T02:49:10.495Z,49.97
2022-10-13T02:51:40.057Z,50.28
2022-10-13T02:54:07.735Z,48.03
2022-10-13T02:56:34.726Z,53.40
2022-10-13T02:59:01.648Z,49.20
2022-10-13T03:01:28.694Z,49.40
2022-10-13T03:03:55.633Z,50.35
2022-10-13T03:06:22.798Z,48.92
2022-10-13T03:08:49.862Z,50.28
2022-10-13T03:11:17.302Z,48.15
2022-10-13T03:13:44.183Z,55.40
2022-10-13T03:16:11.081Z,47.55
2022-10-13T03:18:38.021Z,53.40
2022-10-13T03:21:06.659Z,47.28
2022-10-13T03:23:33.859Z,49.72
2022-10-13T03:26:00.837Z,48.67
2022-10-13T03:28:28.708Z,48.40
2022-10-13T03:31:10.716Z,45.13
2022-10-13T03:33:37.814Z,47.13
2022-10-13T03:36:07.530Z,49.25
2022-10-13T03:38:35.619Z,49.25
2022-10-13T03:41:07.682Z,53.10
2022-10-13T03:43:35.151Z,51.67
2022-10-13T03:46:04.266Z,58.10
2022-10-13T03:48:32.376Z,54.58
2022-10-13T03:50:59.329Z,54.67
2022-10-13T03:53:26.627Z,54.72
2022-10-13T03:55:55.789Z,51.45
2022-10-13T03:58:24.156Z,55.83
2022-10-13T04:00:52.111Z,52.72
2022-10-13T04:03:19.307Z,52.13
2022-10-13T04:05:46.662Z,53.63
2022-10-13T04:08:15.051Z,54.05
2022-10-13T04:10:42.376Z,53.95
2022-10-13T04:13:09.368Z,54.30
2022-10-13T04:15:40.148Z,52.25
2022-10-13T04:18:08.352Z,54.45
2022-10-13T04:20:39.818Z,56.88
2022-10-13T04:23:07.538Z,58.10
2022-10-13T04:25:40.442Z,52.67
2022-10-13T04:30:35.191Z,57.00
2022-10-13T04:33:02.228Z,56.88
2022-10-13T04:35:29.576Z,54.88
2022-10-13T04:37:59.207Z,51.22
2022-10-13T04:40:27.511Z,52.30
2022-10-13T04:42:54.408Z,52.17
2022-10-13T04:45:21.388Z,52.30
2022-10-13T04:47:48.290Z,52.47
2022-10-13T04:50:15.199Z,58.72
2022-10-13T04:52:42.128Z,53.28
2022-10-13T04:55:09.288Z,54.55
2022-10-13T04:57:36.483Z,46.60
2022-10-13T05:00:07.368Z,51.90
2022-10-13T05:02:37.903Z,54.00
2022-10-13T05:05:05.787Z,47.03
2022-10-13T05:07:32.969Z,56.58
2022-10-13T05:09:59.856Z,58.80
2022-10-13T05:12:26.769Z,51.30
2022-10-13T05:14:53.900Z,53.75
2022-10-13T05:17:20.841Z,55.47
2022-10-13T05:19:49.658Z,56.25
2022-10-13T05:22:16.690Z,46.55
2022-10-13T05:24:43.713Z,50.30
2022-10-13T05:27:12.972Z,50.22
2022-10-13T05:29:40.381Z,48.70
2022-10-13T05:32:08.345Z,47.47
2022-10-13T05:34:35.347Z,48.13
2022-10-13T05:37:02.456Z,48.03
2022-10-13T05:39:29.374Z,45.60
2022-10-13T05:41:56.289Z,45.83
2022-10-13T05:44:24.393Z,51.60
2022-10-13T05:46:51.343Z,49.20
2022-10-13T05:49:18.281Z,48.10
2022-10-13T05:51:49.291Z,49.67
2022-10-13T05:54:31.530Z,55.75
2022-10-13T05:57:04.781Z,55.53
2022-10-13T05:59:37.512Z,48.47
2022-10-13T06:02:08.134Z,53.35
2022-10-13T06:04:40.153Z,45.95
2022-10-13T06:07:08.485Z,48.53
2022-10-13T06:09:38.086Z,57.95
2022-10-13T06:12:06.079Z,52.38
2022-10-13T06:14:33.119Z,52.17
2022-10-13T06:17:00.030Z,52.17
2022-10-13T06:19:27.094Z,47.33
2022-10-13T06:21:54.108Z,45.80
2022-10-13T06:24:21.006Z,55.85
2022-10-13T06:26:48.293Z,50.15
2022-10-13T06:29:15.396Z,53.20
2022-10-13T06:31:42.270Z,47.30
2022-10-13T06:34:09.183Z,48.22
2022-10-13T06:36:36.466Z,46.00
2022-10-13T06:39:03.816Z,48.78
2022-10-13T06:41:30.747Z,44.47
2022-10-13T06:43:57.695Z,43.95
2022-10-13T06:46:24.596Z,42.75
2022-10-13T06:48:52.341Z,49.80
2022-10-13T06:51:19.463Z,55.03
2022-10-13T06:53:46.441Z,45.55
2022-10-13T06:56:14.300Z,46.40
2022-10-13T06:58:41.218Z,61.85
2022-10-13T07:01:08.192Z,48.28
2022-10-13T07:03:35.104Z,49.47
2022-10-13T07:06:04.500Z,49.45
2022-10-13T07:08:34.642Z,48.53
2022-10-13T07:11:11.607Z,50.95
2022-10-13T07:13:46.200Z,48.08
2022-10-13T07:16:14.747Z,47.88
2022-10-13T07:18:41.642Z,44.50
2022-10-13T07:21:08.591Z,51.05
2022-10-13T07:23:35.562Z,49.47
2022-10-13T07:26:06.628Z,45.20
2022-10-13T07:28:33.623Z,52.15
2022-10-13T07:31:00.717Z,56.40
2022-10-13T07:33:27.606Z,50.97
2022-10-13T07:35:54.485Z,42.55
2022-10-13T07:38:21.402Z,50.55
2022-10-13T07:40:48.285Z,54.38
2022-10-13T07:43:15.143Z,50.65
2022-10-13T07:45:42.155Z,43.90
2022-10-13T07:48:09.108Z,47.67
2022-10-13T07:50:37.222Z,45.55
2022-10-13T07:53:05.555Z,50.20
2022-10-13T07:55:32.496Z,46.42
2022-10-13T07:58:02.634Z,39.03
2022-10-13T08:00:29.717Z,43.28
2022-10-13T08:02:56.623Z,47.22
2022-10-13T08:05:23.545Z,45.95
2022-10-13T08:07:53.486Z,50.35
2022-10-13T08:10:23.292Z,49.28
2022-10-13T08:12:50.224Z,37.30
2022-10-13T08:15:17.228Z,36.05
2022-10-13T08:17:44.101Z,46.17
2022-10-13T08:20:11.262Z,46.85
2022-10-13T08:22:38.228Z,48.00
2022-10-13T08:25:07.285Z,48.65
2022-10-13T08:27:50.072Z,59.78
2022-10-13T08:30:17.675Z,45.63
2022-10-13T08:32:44.694Z,56.80
2022-10-13T08:35:11.886Z,51.45
2022-10-13T08:37:40.491Z,48.15
2022-10-13T08:40:12.062Z,47.72
2022-10-13T08:42:44.703Z,45.47
2022-10-13T08:48:07.565Z,45.72
2022-10-13T08:50:39.127Z,60.22
2022-10-13T08:53:13.974Z,42.60
2022-10-13T08:55:45.273Z,52.92
2022-10-13T08:58:14.860Z,50.83
2022-10-13T09:00:42.321Z,53.63
2022-10-13T09:03:42.225Z,54.75
2022-10-13T09:06:40.304Z,62.58
2022-10-13T09:09:11.096Z,69.53
2022-10-13T09:11:42.009Z,55.15
2022-10-13T09:14:22.460Z,61.22
2022-10-13T09:16:50.712Z,64.53
2022-10-13T09:19:23.649Z,59.30
2022-10-13T09:21:53.220Z,60.58
2022-10-13T09:24:21.815Z,61.28
2022-10-13T09:26:52.665Z,55.05
2022-10-13T09:29:26.375Z,57.92
2022-10-13T09:32:21.861Z,58.80
2022-10-13T09:34:49.697Z,56.47
2022-10-13T09:37:22.309Z,63.22
2022-10-13T09:42:31.996Z,62.25
2022-10-13T09:45:12.096Z,59.33
2022-10-13T09:47:39.300Z,64.18
2022-10-13T09:50:15.802Z,60.20
2022-10-13T09:52:43.598Z,61.53
2022-10-13T09:55:32.798Z,59.53
2022-10-13T09:58:06.004Z,63.25
2022-10-13T10:00:33.423Z,68.07
2022-10-13T10:03:11.049Z,66.80
2022-10-13T10:05:57.981Z,63.13
2022-10-13T10:09:02.209Z,67.07
2022-10-13T10:11:35.347Z,59.35
2022-10-13T10:14:17.079Z,70.28
2022-10-13T10:16:49.699Z,65.68
2022-10-13T10:22:13.230Z,70.55
2022-10-13T10:25:00.865Z,67.38
2022-10-13T10:27:37.774Z,73.70
2022-10-13T10:30:19.695Z,80.82
2022-10-13T10:32:50.303Z,79.65
2022-10-13T10:35:44.517Z,74.70
2022-10-13T10:38:14.239Z,77.55
2022-10-13T10:40:49.895Z,79.65
2022-10-13T10:43:38.062Z,76.97
2022-10-13T10:46:13.483Z,73.00
2022-10-13T10:48:40.713Z,74.50
2022-10-13T10:51:10.195Z,76.68
2022-10-13T10:53:57.357Z,77.72
2022-10-13T10:56:54.412Z,69.22
2022-10-13T10:59:51.835Z,79.22
2022-10-13T11:02:27.700Z,71.20
2022-10-13T11:04:54.795Z,69.97
2022-10-13T11:07:24.907Z,82.13
2022-10-13T11:09:57.738Z,77.13
2022-10-13T11:12:26.784Z,77.93
2022-10-13T11:15:11.695Z,78.68
2022-10-13T11:17:40.293Z,66.20
2022-10-13T11:20:36.763Z,73.50
2022-10-13T11:23:03.586Z,72.90
2022-10-13T11:25:41.164Z,66.25
2022-10-13T11:28:40.142Z,73.82
2022-10-13T11:31:12.962Z,62.58
2022-10-13T11:33:39.809Z,62.22
2022-10-13T11:36:49.073Z,64.78
2022-10-13T11:39:42.357Z,53.35
2022-10-13T11:42:12.326Z,62.58
2022-10-13T11:44:54.612Z,70.97
2022-10-13T11:47:58.828Z,63.92
2022-10-13T11:50:34.560Z,64.07
2022-10-13T11:53:23.338Z,62.65
2022-10-13T11:55:59.022Z,53.63
2022-10-13T11:58:29.134Z,55.15
2022-10-13T12:01:14.405Z,64.13
2022-10-13T12:03:46.547Z,68.40
2022-10-13T12:06:16.680Z,63.33
2022-10-13T12:08:51.595Z,63.30
2022-10-13T12:11:28.913Z,58.47
2022-10-13T12:13:57.388Z,59.13
2022-10-13T12:16:24.540Z,69.60
2022-10-13T12:18:51.709Z,58.85
2022-10-13T12:21:21.489Z,70.32
2022-10-13T12:24:05.421Z,62.15
2022-10-13T12:26:32.643Z,62.40
2022-10-13T12:29:03.676Z,66.60
2022-10-13T12:31:42.684Z,63.28
2022-10-13T12:34:32.061Z,73.07
2022-10-13T12:37:19.211Z,69.40
2022-10-13T12:39:46.970Z,74.78
2022-10-13T12:42:14.888Z,67.97
2022-10-13T12:44:42.472Z,65.05
2022-10-13T12:47:44.122Z,68.50
2022-10-13T12:50:33.485Z,65.97
2022-10-13T12:53:03.414Z,65.88
2022-10-13T12:55:32.091Z,76.75
2022-10-13T12:57:59.358Z,71.72
2022-10-13T13:00:29.887Z,75.07
2022-10-13T13:03:06.315Z,68.72
2022-10-13T13:05:40.738Z,75.35
2022-10-13T13:08:25.990Z,65.00
2022-10-13T13:11:09.970Z,67.65
2022-10-13T13:13:36.951Z,75.15
2022-10-13T13:16:15.212Z,76.65
2022-10-13T13:18:44.232Z,73.72
2022-10-13T13:21:16.250Z,71.15
2022-10-13T13:23:51.032Z,74.70
2022-10-13T13:26:23.227Z,79.57
2022-10-13T13:28:52.578Z,74.63
2022-10-13T13:31:21.426Z,71.50
2022-10-13T13:33:49.124Z,73.13
2022-10-13T13:36:18.504Z,73.38
2022-10-13T13:38:45.726Z,77.78
2022-10-13T13:41:13.187Z,69.03
2022-10-13T13:43:40.952Z,66.53
2022-10-13T13:46:16.021Z,71.85
2022-10-13T13:48:43.119Z,75.10
2022-10-13T13:51:10.593Z,65.63
2022-10-13T13:53:38.158Z,57.97
2022-10-13T13:56:08.453Z,54.47
2022-10-13T13:58:36.270Z,55.47
2022-10-13T14:01:03.211Z,74.18
2022-10-13T14:03:30.192Z,76.13
2022-10-13T14:05:57.138Z,65.18
2022-10-13T14:08:24.062Z,64.13
2022-10-13T14:10:50.984Z,74.45
2022-10-13T14:13:18.010Z,74.70
2022-10-13T14:15:44.972Z,69.82
2022-10-13T14:18:13.540Z,62.22
2022-10-13T14:20:42.218Z,58.10
2022-10-13T14:23:09.106Z,64.55
2022-10-13T14:25:38.556Z,76.07
2022-10-13T14:28:05.709Z,60.55
2022-10-13T14:30:32.720Z,65.32
2022-10-13T14:33:00.299Z,70.13
2022-10-13T14:35:27.194Z,73.40
2022-10-13T14:37:54.068Z,78.70
2022-10-13T14:40:21.146Z,74.03
2022-10-13T14:42:48.002Z,70.53
2022-10-13T14:45:15.885Z,80.30
2022-10-13T14:47:43.020Z,69.03
2022-10-13T14:50:11.335Z,75.78
2022-10-13T14:52:38.255Z,68.68
2022-10-13T14:55:05.568Z,70.90
2022-10-13T14:57:32.446Z,66.15
2022-10-13T15:00:01.881Z,68.40
2022-10-13T15:02:29.413Z,72.35
2022-10-13T15:04:56.325Z,76.75
2022-10-13T15:07:23.663Z,70.82
2022-10-13T15:10:00.496Z,60.80
2022-10-13T15:12:31.662Z,73.68
2022-10-13T15:14:58.599Z,81.05
2022-10-13T15:17:25.529Z,65.47
2022-10-13T15:19:52.438Z,74.13
2022-10-13T15:22:19.722Z,73.30
2022-10-13T15:24:46.814Z,77.95
2022-10-13T15:27:13.811Z,82.65
2022-10-13T15:29:40.769Z,76.45
2022-10-13T15:32:13.616Z,64.82
2022-10-13T15:34:40.632Z,84.47
2022-10-13T15:37:08.070Z,78.35
2022-10-13T15:39:34.986Z,78.90
2022-10-13T15:42:02.045Z,83.68
2022-10-13T15:44:40.310Z,78.63
2022-10-13T15:47:17.294Z,85.63
2022-10-13T15:49:44.478Z,81.00
2022-10-13T15:52:11.552Z,85.90
2022-10-13T15:54:38.704Z,86.97
2022-10-13T15:57:05.720Z,83.28
2022-10-13T15:59:32.631Z,76.97
2022-10-13T16:01:59.565Z,78.75
2022-10-13T16:04:26.487Z,88.10
2022-10-13T16:06:53.570Z,85.20
2022-10-13T16:09:20.486Z,86.13
2022-10-13T16:11:47.478Z,77.07
2022-10-13T16:14:14.499Z,75.40
2022-10-13T16:16:41.445Z,78.88
2022-10-13T16:19:08.719Z,85.18
2022-10-13T16:21:35.701Z,85.72
2022-10-13T16:24:02.643Z,81.07
2022-10-13T16:26:29.593Z,87.57
2022-10-13T16:28:57.140Z,96.65
2022-10-13T16:31:24.617Z,87.13
2022-10-13T16:33:51.608Z,98.95
2022-10-13T16:36:19.937Z,95.00
2022-10-13T16:38:47.975Z,101.05
2022-10-13T16:41:18.249Z,93.03
2022-10-13T16:43:46.267Z,109.95
2022-10-13T16:46:15.314Z,103.15
2022-10-13T16:48:43.325Z,97.90
2022-10-13T16:51:14.223Z,87.13
2022-10-13T16:53:41.536Z,87.63
2022-10-13T16:56:09.036Z,83.78
2022-10-13T16:58:36.066Z,86.93
2022-10-13T17:01:11.074Z,91.35
2022-10-13T17:03:39.587Z,108.53
2022-10-13T17:06:07.110Z,97.22
2022-10-13T17:08:34.412Z,110.53
2022-10-13T17:11:04.089Z,93.65
2022-10-13T17:13:32.460Z,97.90
2022-10-13T17:15:59.787Z,96.10
2022-10-13T17:18:27.798Z,85.68
2022-10-13T17:21:00.733Z,86.70
2022-10-13T17:23:31.371Z,88.00
2022-10-13T17:26:04.001Z,94.85
2022-10-13T17:28:31.407Z,88.45
2022-10-13T17:31:04.196Z,99.95
2022-10-13T17:36:02.277Z,119.97
2022-10-13T17:38:29.953Z,104.10
2022-10-13T17:41:01.900Z,107.68
2022-10-13T17:43:29.858Z,95.85
2022-10-13T17:46:34.412Z,96.75
2022-10-13T17:48:58.771Z,111.50
2022-10-13T17:51:25.763Z,117.80
2022-10-13T17:53:53.561Z,121.05
2022-10-13T17:56:22.937Z,108.43
2022-10-13T17:58:51.249Z,115.18
2022-10-13T18:01:23.982Z,121.70
2022-10-13T18:06:23.046Z,111.15
2022-10-13T18:08:50.969Z,103.90
2022-10-13T18:11:20.639Z,119.30
2022-10-13T18:13:47.919Z,112.05
2022-10-13T18:16:20.818Z,121.28
2022-10-13T18:18:48.182Z,119.68
2022-10-13T18:21:17.278Z,114.03
2022-10-13T18:23:44.783Z,109.05
2022-10-13T18:26:17.768Z,116.13
2022-10-13T18:28:46.064Z,107.40
2022-10-13T18:31:36.776Z,105.32
2022-10-13T18:34:15.344Z,101.13
2022-10-13T18:36:47.921Z,115.38
2022-10-13T18:39:20.726Z,110.85
2022-10-13T18:41:49.104Z,102.85
2022-10-13T18:44:17.080Z,111.53
2022-10-13T18:46:44.238Z,110.50
2022-10-13T18:49:14.618Z,111.80
2022-10-13T18:51:41.967Z,103.60
2022-10-13T18:54:08.933Z,108.95
2022-10-13T18:56:37.063Z,107.57
2022-10-13T18:59:05.911Z,103.70
2022-10-13T19:01:34.387Z,113.82
2022-10-13T19:04:01.433Z,132.07
2022-10-13T19:06:31.968Z,136.10
2022-10-13T19:09:05.197Z,124.97
2022-10-13T19:11:33.029Z,115.90
2022-10-13T19:14:01.029Z,114.20
2022-10-13T19:16:29.844Z,121.13
2022-10-13T19:18:57.271Z,121.43
2022-10-13T19:21:24.861Z,123.50
2022-10-13T19:23:52.210Z,123.35
2022-10-13T19:26:23.862Z,104.55
2022-10-13T19:29:01.878Z,106.63
2022-10-13T19:31:30.644Z,123.93
2022-10-13T19:33:58.956Z,113.65
2022-10-13T19:36:33.299Z,112.55
2022-10-13T19:39:01.077Z,109.70
2022-10-13T19:41:30.846Z,108.68
2022-10-13T19:43:59.012Z,123.03
2022-10-13T19:46:26.147Z,124.82
2022-10-13T19:48:53.056Z,127.68
2022-10-13T19:51:20.074Z,135.55
2022-10-13T19:53:46.996Z,127.85
2022-10-13T19:56:32.998Z,127.72
2022-10-13T19:59:00.786Z,115.35
2022-10-13T20:01:28.272Z,115.60
2022-10-13T20:03:55.567Z,106.82
2022-10-13T20:06:23.124Z,124.55
2022-10-13T20:08:50.331Z,111.13
2022-10-13T20:11:23.827Z,107.45
2022-10-13T20:13:52.481Z,98.18
2022-10-13T20:16:23.604Z,100.72
2022-10-13T20:18:56.186Z,102.05
2022-10-13T20:21:24.680Z,106.82
2022-10-13T20:23:52.013Z,98.63
2022-10-13T20:26:19.906Z,112.72
2022-10-13T20:28:48.469Z,110.57
2022-10-13T20:31:17.690Z,96.13
2022-10-13T20:33:44.852Z,119.95
2022-10-13T20:36:15.407Z,125.57
2022-10-13T20:38:42.402Z,115.40
2022-10-13T20:41:19.095Z,109.43
2022-10-13T20:43:47.843Z,102.32
2022-10-13T20:46:16.339Z,125.07
2022-10-13T20:49:09.934Z,117.72
2022-10-13T20:51:31.327Z,111.28
2022-10-13T20:53:58.297Z,111.32
2022-10-13T20:56:26.925Z,111.72
2022-10-13T20:58:54.410Z,112.35
2022-10-13T21:01:22.761Z,117.70
2022-10-13T21:03:54.172Z,112.32
2022-10-13T21:06:23.363Z,114.85
2022-10-13T21:08:50.332Z,111.68
2022-10-13T21:11:20.549Z,107.95
2022-10-13T21:13:48.518Z,114.70
2022-10-13T21:16:21.114Z,110.45
2022-10-13T21:18:49.492Z,110.65
2022-10-13T21:21:18.901Z,119.60
2022-10-13T21:23:49.114Z,115.10
2022-10-13T21:26:21.376Z,115.15
2022-10-13T21:28:50.027Z,113.78
2022-10-13T21:31:19.240Z,121.28
2022-10-13T21:33:46.403Z,123.10
2022-10-13T21:36:14.968Z,113.32
2022-10-13T21:38:43.363Z,115.80
2022-10-13T21:41:12.379Z,114.63
2022-10-13T21:43:39.805Z,111.32
2022-10-13T21:46:15.460Z,111.25
2022-10-13T21:48:43.573Z,117.03
2022-10-13T21:51:19.796Z,117.20
2022-10-13T21:53:51.878Z,111.93
2022-10-13T21:56:19.777Z,120.55
2022-10-13T21:58:47.586Z,119.70
2022-10-13T22:01:15.181Z,121.85
2022-10-13T22:03:42.230Z,119.80
2022-10-13T22:06:17.491Z,120.25
2022-10-13T22:08:47.802Z,135.75
2022-10-13T22:11:15.454Z,137.23
2022-10-13T22:13:42.516Z,124.95
2022-10-13T22:16:15.597Z,124.97
2022-10-13T22:18:43.060Z,126.30
2022-10-13T22:21:16.989Z,118.82
2022-10-13T22:23:44.992Z,116.32
2022-10-13T22:26:13.247Z,113.93
2022-10-13T22:28:40.761Z,121.05
2022-10-13T22:31:10.660Z,114.53
2022-10-13T22:33:39.640Z,116.78
2022-10-13T22:36:18.551Z,114.97
2022-10-13T22:38:47.313Z,110.70
2022-10-13T22:41:15.899Z,107.03
2022-10-13T22:43:44.869Z,109.45
2022-10-13T22:46:17.162Z,100.68
2022-10-13T22:48:44.363Z,105.07
2022-10-13T22:51:13.781Z,97.63
2022-10-13T22:53:40.742Z,105.75
2022-10-13T22:56:14.014Z,96.85
2022-10-13T22:58:41.185Z,105.57
2022-10-13T23:01:14.012Z,103.72
2022-10-13T23:06:12.599Z,109.10
2022-10-13T23:08:39.653Z,94.40
2022-10-13T23:11:06.614Z,102.60
2022-10-13T23:13:33.553Z,99.43
2022-10-13T23:16:09.292Z,106.72
2022-10-13T23:18:36.229Z,110.22
2022-10-13T23:21:12.616Z,102.78
2022-10-13T23:23:40.294Z,96.80
2022-10-13T23:26:17.459Z,93.95
2022-10-13T23:28:45.049Z,99.55
2022-10-13T23:31:15.519Z,97.35
2022-10-13T23:33:43.120Z,104.35
2022-10-13T23:36:16.075Z,94.22
2022-10-13T23:38:43.411Z,115.55
2022-10-13T23:41:12.910Z,116.15
2022-10-13T23:43:40.628Z,101.07
2022-10-13T23:46:10.264Z,97.13
2022-10-13T23:48:38.302Z,101.63
2022-10-13T23:51:10.815Z,94.63
2022-10-13T23:53:38.933Z,93.75
2022-10-13T23:56:07.616Z,103.40
2022-10-13T23:58:39.153Z,100.13
